Anderson, South Carolina
Current Conditions -  °F | °C
As of 12:56 PM on Thursday 30 Oct 2014 (Local Time) from KAND Reporting Station
Clear Clear  
Wind Chill: 65°   Ceiling: Unl
Heat Index: 65°   Visibility: 10mi
Dew Point: 38°   Wind: 7mph
Humidity: 37%   Direction: 70°ENE
Pressure: 30.05"   Gusts: NA
Location:  34.5°N, 82.65°W
Report Text: KAND 301656Z AUTO 07006KT 10SM CLR 18/03 A3005 RMK AO2 SLP171 T01830033
Loading
Personal Weather Stations






























Interactive Weather Map
Tropical Storm Tracking
New forecast layout! Learn more

10-Day Weather Forecast

Advertisements
Track Severe Weather on mobile